Time;durP1;ratioP1;P1;durP2;ratioP2;P2;SDS_P1;SDS_P2;PMS_P1;PMS_P2;Temp;Humidity;BMP_temperature;BMP_pressure;BME280_temperature;BME280_humidity;BME280_pressure;Samples;Min_cycle;Max_cycle;Signal;HPM_P1;HPM_P2
2021/03/31 00:01:35;;;;;;;26.40;17.70;;;;;;;11.19;51.66;102507.94;5137068;27;20019;-41
2021/03/31 00:04:00;;;;;;;29.00;17.83;;;;;;;11.17;51.85;102507.28;5137383;27;20027;-41
2021/03/31 00:06:26;;;;;;;28.87;17.37;;;;;;;11.15;51.43;102507.47;5138275;27;20038;-41
2021/03/31 00:08:51;;;;;;;26.85;17.65;;;;;;;11.19;51.67;102511.47;5137809;27;20467;-41
2021/03/31 00:11:17;;;;;;;27.93;16.73;;;;;;;11.03;51.47;102507.16;5138150;27;20459;-41
2021/03/31 00:13:42;;;;;;;29.83;18.13;;;;;;;10.98;51.87;102512.31;5137501;27;20033;-41
2021/03/31 00:16:08;;;;;;;30.52;18.48;;;;;;;10.85;51.98;102497.81;5137145;27;20023;-41
2021/03/31 00:18:34;;;;;;;27.70;18.00;;;;;;;10.78;51.68;102506.72;5137394;27;20031;-41
2021/03/31 00:21:01;;;;;;;30.83;17.42;;;;;;;10.62;52.70;102506.09;5137342;27;20106;-41
2021/03/31 00:23:27;;;;;;;27.42;17.80;;;;;;;10.65;51.17;102505.72;5137010;27;20513;-41
2021/03/31 00:25:53;;;;;;;27.25;18.83;;;;;;;10.49;53.82;102487.84;5137597;27;20451;-41
2021/03/31 00:28:19;;;;;;;30.00;18.05;;;;;;;10.57;52.92;102490.44;5137175;27;20023;-41
2021/03/31 00:30:45;;;;;;;28.85;18.48;;;;;;;10.65;52.14;102493.03;5137262;27;20038;-41
2021/03/31 00:33:11;;;;;;;31.88;18.60;;;;;;;10.60;52.97;102483.81;5137195;27;20378;-41
2021/03/31 00:35:37;;;;;;;28.70;19.23;;;;;;;10.71;52.11;102488.72;5137078;27;20167;-41
2021/03/31 00:38:03;;;;;;;29.30;17.55;;;;;;;10.59;52.50;102477.56;5137336;27;20045;-41
2021/03/31 00:40:36;;;;;;;33.90;19.65;;;;;;;10.63;52.49;102475.28;5137321;27;20075;-41
2021/03/31 00:43:01;;;;;;;36.63;20.25;;;;;;;10.56;51.29;102480.66;5137520;27;20075;-41
2021/03/31 00:45:26;;;;;;;29.33;19.17;;;;;;;10.40;50.82;102480.88;5137745;27;20027;-41
2021/03/31 00:47:52;;;;;;;26.17;17.83;;;;;;;10.44;52.02;102472.19;5136409;27;20463;-41
2021/03/31 00:50:19;;;;;;;27.90;17.77;;;;;;;10.32;51.64;102471.00;5136845;27;20027;-41
2021/03/31 00:52:46;;;;;;;31.05;19.17;;;;;;;10.44;52.60;102461.38;5136744;27;20031;-42
2021/03/31 00:55:13;;;;;;;30.70;18.92;;;;;;;10.31;52.37;102455.81;5137240;27;20419;-44
2021/03/31 00:57:40;;;;;;;31.73;17.98;;;;;;;10.24;52.43;102454.88;5137034;27;20070;-41
2021/03/31 01:00:07;;;;;;;26.90;18.05;;;;;;;10.20;53.28;102453.53;5136882;27;20030;-41
2021/03/31 01:02:32;;;;;;;29.75;18.70;;;;;;;10.19;53.01;102451.88;5136783;27;20037;-41
2021/03/31 01:04:58;;;;;;;28.77;17.97;;;;;;;10.16;53.46;102450.41;5136836;27;20466;-41
2021/03/31 01:07:23;;;;;;;28.50;18.00;;;;;;;10.16;51.31;102446.88;5136918;27;20158;-41
2021/03/31 01:09:51;;;;;;;25.80;17.50;;;;;;;10.17;52.15;102438.56;5136738;27;20102;-41
2021/03/31 01:12:23;;;;;;;30.70;18.67;;;;;;;10.17;52.23;102435.03;5136623;27;20066;-41
2021/03/31 01:15:33;;;;;;;28.88;18.48;;;;;;;10.18;52.04;102432.13;5136861;27;20027;-41
2021/03/31 01:18:07;;;;;;;30.80;18.35;;;;;;;10.11;52.71;102433.09;5072962;28;20044;-41
2021/03/31 01:20:42;;;;;;;28.50;18.65;;;;;;;10.12;52.52;102430.19;5073369;28;20055;-41
2021/03/31 01:23:44;;;;;;;26.38;18.48;;;;;;;10.06;51.84;102428.25;5072554;28;20025;-41
2021/03/31 01:26:30;;;;;;;28.65;18.15;;;;;;;10.16;52.61;102436.06;5072904;28;20043;-41
2021/03/31 01:29:22;;;;;;;28.90;17.13;;;;;;;10.05;53.20;102430.09;5072800;28;20127;-41
2021/03/31 01:31:57;;;;;;;30.98;18.75;;;;;;;9.91;53.36;102422.84;5055694;28;20090;-41
2021/03/31 01:34:30;;;;;;;27.42;18.90;;;;;;;9.82;54.40;102415.88;5072609;28;20481;-41
2021/03/31 01:36:57;;;;;;;26.83;18.58;;;;;;;9.79;53.67;102417.06;5072897;28;20503;-41
2021/03/31 01:39:23;;;;;;;31.33;18.92;;;;;;;9.76;54.53;102422.00;5072186;28;20122;-41
2021/03/31 01:41:51;;;;;;;26.88;18.77;;;;;;;9.74;55.10;102418.66;5073047;28;20472;-41
2021/03/31 01:44:19;;;;;;;28.83;18.70;;;;;;;9.47;54.92;102415.59;5072167;28;20029;-41
2021/03/31 01:46:50;;;;;;;33.50;21.38;;;;;;;9.49;54.56;102410.84;5072227;28;20051;-41
2021/03/31 01:49:18;;;;;;;30.17;19.30;;;;;;;9.46;54.99;102413.91;5072142;28;20074;-41
2021/03/31 01:51:46;;;;;;;31.15;19.70;;;;;;;9.34;53.88;102414.56;5072033;28;20138;-41
2021/03/31 01:54:15;;;;;;;31.20;18.23;;;;;;;9.34;55.38;102415.41;5125934;27;20043;-41
2021/03/31 01:56:41;;;;;;;28.92;19.02;;;;;;;9.20;56.02;102416.22;5135785;27;20047;-41
2021/03/31 01:59:08;;;;;;;29.88;19.25;;;;;;;9.17;56.16;102409.31;5135495;27;20378;-41
2021/03/31 02:01:34;;;;;;;25.83;18.00;;;;;;;9.19;55.58;102415.38;5134831;27;20114;-41
2021/03/31 02:04:00;;;;;;;30.58;18.20;;;;;;;9.17;56.91;102397.66;5135314;27;20031;-41
2021/03/31 02:06:30;;;;;;;33.17;20.67;;;;;;;9.18;56.27;102399.38;5135815;27;20027;-41
2021/03/31 02:08:58;;;;;;;27.20;18.40;;;;;;;9.17;57.49;102392.28;5135207;27;20020;-41
2021/03/31 02:11:30;;;;;;;29.85;19.08;;;;;;;9.24;56.89;102391.38;5135740;27;20031;-41
2021/03/31 02:13:57;;;;;;;27.88;18.50;;;;;;;9.16;56.50;102387.91;5135080;27;20023;-41
2021/03/31 02:16:23;;;;;;;29.75;19.27;;;;;;;9.12;56.90;102400.09;5135597;27;20367;-41
2021/03/31 02:18:50;;;;;;;;;;;;;;;9.31;54.53;102390.63;5135781;27;20466;-41
2021/03/31 02:21:17;;;;;;;28.27;19.37;;;;;;;9.16;57.09;102386.03;5135828;27;19914;-41
2021/03/31 02:23:43;;;;;;;27.42;18.52;;;;;;;9.03;57.50;102393.94;5135448;27;20272;-41
2021/03/31 02:26:08;;;;;;;33.05;20.02;;;;;;;9.06;57.17;102390.88;5135567;27;20031;-41
2021/03/31 02:28:34;;;;;;;29.80;19.37;;;;;;;9.02;57.91;102379.59;5134931;27;20073;-41
2021/03/31 02:30:59;;;;;;;29.52;19.92;;;;;;;8.95;57.68;102380.53;5135499;27;20023;-41
2021/03/31 02:33:27;;;;;;;30.03;20.03;;;;;;;8.97;58.06;102382.00;5134596;27;20393;-41
2021/03/31 02:35:52;;;;;;;31.70;19.15;;;;;;;8.88;58.46;102377.72;5134506;27;20023;-41
2021/03/31 02:38:19;;;;;;;27.67;18.60;;;;;;;8.91;57.59;102384.59;5134750;27;20019;-41
2021/03/31 02:40:49;;;;;;;30.30;20.52;;;;;;;8.75;58.17;102380.19;5134392;27;20110;-41
2021/03/31 02:43:16;;;;;;;34.75;20.45;;;;;;;8.67;57.92;102374.84;5134737;27;20085;-41
2021/03/31 02:45:45;;;;;;;28.48;19.55;;;;;;;8.54;58.63;102380.00;5135288;27;20086;-41
2021/03/31 02:48:14;;;;;;;31.27;20.60;;;;;;;8.54;59.04;102377.31;5134913;27;20023;-41
2021/03/31 02:50:40;;;;;;;32.20;20.52;;;;;;;8.49;59.52;102377.84;5134909;27;20023;-41
2021/03/31 02:53:06;;;;;;;29.88;20.08;;;;;;;8.55;59.09;102384.41;5133322;27;20386;-41
2021/03/31 02:55:32;;;;;;;33.15;21.58;;;;;;;8.48;59.77;102373.47;5134306;27;20023;-41
2021/03/31 02:58:00;;;;;;;;;;;;;;;8.66;57.16;102378.59;5135053;27;20027;-41
2021/03/31 03:00:25;;;;;;;30.20;19.63;;;;;;;8.45;58.98;102368.47;5135072;27;19908;-41
2021/03/31 03:02:51;;;;;;;35.80;21.13;;;;;;;8.47;59.08;102369.94;5134535;27;20096;-41
2021/03/31 03:05:19;;;;;;;34.70;20.85;;;;;;;8.45;58.97;102372.00;5134523;27;20114;-41
2021/03/31 03:07:45;;;;;;;38.67;21.90;;;;;;;8.39;59.04;102364.59;5134966;27;20027;-41
2021/03/31 03:10:11;;;;;;;32.67;21.33;;;;;;;8.42;59.11;102364.25;5134773;27;20023;-41
2021/03/31 03:12:46;;;;;;;30.70;21.00;;;;;;;8.42;59.04;102360.72;5137822;27;20127;-41
2021/03/31 03:15:14;;;;;;;32.50;20.58;;;;;;;8.37;59.81;102363.97;5138405;27;20835;-41
2021/03/31 03:17:40;;;;;;;30.52;20.35;;;;;;;8.44;59.19;102355.97;5138466;27;20027;-41
2021/03/31 03:20:08;;;;;;;30.95;20.58;;;;;;;8.46;58.56;102356.66;5138806;27;20028;-41
2021/03/31 03:22:34;;;;;;;33.70;21.48;;;;;;;8.54;59.41;102356.59;5138497;27;20050;-41
2021/03/31 03:25:01;;;;;;;31.27;20.87;;;;;;;8.44;59.05;102348.75;5139036;27;20035;-41
2021/03/31 03:27:27;;;;;;;34.20;20.95;;;;;;;8.39;59.36;102351.13;5138436;27;20276;-41
2021/03/31 03:29:54;;;;;;;31.73;21.40;;;;;;;8.41;59.03;102351.81;5138688;27;20375;-41
2021/03/31 03:32:20;;;;;;;30.13;20.67;;;;;;;8.24;59.00;102348.34;5138303;27;20431;-41
2021/03/31 03:34:46;;;;;;;30.10;20.35;;;;;;;8.13;59.13;102351.47;5138769;27;20023;-41
2021/03/31 03:37:13;;;;;;;31.23;21.70;;;;;;;8.00;59.68;102346.66;5137946;27;20023;-41
2021/03/31 03:39:38;;;;;;;31.70;20.15;;;;;;;7.98;59.90;102346.00;5138277;27;20023;-41
2021/03/31 03:42:05;;;;;;;27.55;19.90;;;;;;;7.97;60.65;102346.19;5137844;27;20034;-41
2021/03/31 03:44:31;;;;;;;;;;;;;;;8.17;58.28;102341.16;5138495;27;20035;-41
2021/03/31 03:46:58;;;;;;;34.42;20.65;;;;;;;8.04;59.46;102340.91;5137978;27;19907;-41
2021/03/31 03:49:23;;;;;;;33.88;20.75;;;;;;;8.06;59.95;102350.50;5138814;27;20367;-42
2021/03/31 03:51:49;;;;;;;37.30;20.77;;;;;;;8.09;60.03;102347.44;5137946;27;20027;-42
2021/03/31 03:54:15;;;;;;;33.08;20.13;;;;;;;8.17;59.72;102349.25;5138503;27;20031;-42
2021/03/31 03:56:46;;;;;;;32.90;20.03;;;;;;;8.04;59.35;102351.69;5138562;27;20408;-42
2021/03/31 03:59:23;;;;;;;39.58;21.40;;;;;;;7.97;60.07;102347.00;5137836;27;20031;-42
2021/03/31 04:01:50;;;;;;;30.27;20.45;;;;;;;7.92;60.03;102353.94;5137015;27;20359;-41
2021/03/31 04:04:16;;;;;;;30.90;19.30;;;;;;;7.92;60.63;102346.69;5137890;27;20119;-41
2021/03/31 04:06:41;;;;;;;31.55;19.98;;;;;;;7.98;59.91;102347.84;5136336;27;20367;-41
2021/03/31 04:09:07;;;;;;;30.30;20.50;;;;;;;7.87;59.90;102346.41;5137946;27;20039;-41
2021/03/31 04:11:34;;;;;;;31.30;19.75;;;;;;;7.94;60.16;102341.13;5138057;27;20031;-41
2021/03/31 04:14:01;;;;;;;31.42;19.40;;;;;;;7.83;60.26;102339.69;5137073;27;20046;-41
2021/03/31 04:16:29;;;;;;;32.42;21.55;;;;;;;7.82;60.57;102337.19;5138207;27;20023;-41
2021/03/31 04:18:58;;;;;;;31.38;19.77;;;;;;;7.80;60.46;102342.72;5137368;27;20033;-41
2021/03/31 04:21:24;;;;;;;31.65;21.27;;;;;;;7.79;60.96;102346.44;5137749;27;20076;-42
2021/03/31 04:23:49;;;;;;;30.33;20.00;;;;;;;7.83;60.38;102345.06;5136364;27;20027;-42
2021/03/31 04:26:16;;;;;;;27.13;18.53;;;;;;;7.79;60.04;102338.34;5137867;27;20035;-42
2021/03/31 04:28:42;;;;;;;30.02;20.40;;;;;;;7.68;61.19;102339.59;5137233;27;20023;-42
2021/03/31 04:31:08;;;;;;;28.70;19.95;;;;;;;7.63;60.63;102341.13;5137221;27;20079;-42
2021/03/31 04:33:36;;;;;;;32.67;20.83;;;;;;;7.59;60.95;102342.50;5137055;27;20019;-42
2021/03/31 04:36:01;;;;;;;31.85;19.88;;;;;;;7.54;60.78;102342.19;5137342;27;20439;-42
2021/03/31 04:38:26;;;;;;;29.65;20.08;;;;;;;7.48;61.10;102343.72;5137355;27;20065;-42
2021/03/31 04:41:00;;;;;;;27.77;19.70;;;;;;;7.47;61.00;102339.34;5137348;27;20035;-42
2021/03/31 04:43:29;;;;;;;29.15;18.35;;;;;;;7.49;61.03;102338.16;5136981;27;20023;-42
2021/03/31 04:46:01;;;;;;;29.17;19.45;;;;;;;7.43;61.42;102343.41;5137178;27;20108;-42
2021/03/31 04:48:27;;;;;;;29.38;19.92;;;;;;;7.35;60.54;102344.25;5136812;27;20154;-42
2021/03/31 04:50:53;;;;;;;31.92;20.23;;;;;;;7.31;61.32;102350.16;5137481;27;20066;-42
2021/03/31 04:53:19;;;;;;;28.10;18.92;;;;;;;7.21;62.00;102344.97;5137311;27;20042;-42
2021/03/31 04:55:44;;;;;;;28.20;19.27;;;;;;;7.29;61.89;102336.88;5137181;27;20047;-42
2021/03/31 04:58:10;;;;;;;30.57;18.87;;;;;;;7.21;62.06;102339.59;5136431;27;20076;-42
2021/03/31 05:00:35;;;;;;;29.58;18.08;;;;;;;7.15;62.43;102334.91;5136138;27;20027;-42
2021/03/31 05:03:01;;;;;;;31.53;19.80;;;;;;;7.18;62.35;102329.19;5137128;27;20027;-42
2021/03/31 05:05:26;;;;;;;24.70;17.60;;;;;;;7.21;62.51;102331.50;5136901;27;20028;-42
2021/03/31 05:07:51;;;;;;;31.40;19.37;;;;;;;7.38;62.12;102319.69;5136560;27;20027;-42
2021/03/31 05:10:17;;;;;;;27.37;18.47;;;;;;;7.38;62.10;102318.84;5136206;27;20063;-42
2021/03/31 05:12:42;;;;;;;28.53;18.97;;;;;;;7.39;62.52;102315.97;5136452;27;20038;-42
2021/03/31 05:15:08;;;;;;;28.23;17.83;;;;;;;7.31;60.93;102320.53;5134926;27;20019;-42
2021/03/31 05:17:33;;;;;;;28.98;18.58;;;;;;;7.19;61.67;102320.94;5136288;27;20038;-42
2021/03/31 05:19:59;;;;;;;29.30;18.53;;;;;;;7.20;62.38;102325.28;5135956;27;20031;-42
2021/03/31 05:22:25;;;;;;;30.05;18.08;;;;;;;7.14;62.38;102333.22;5135108;27;20043;-42
2021/03/31 05:24:50;;;;;;;36.80;19.02;;;;;;;7.13;62.65;102331.56;5136618;27;20409;-42
2021/03/31 05:27:16;;;;;;;26.47;18.33;;;;;;;7.11;62.49;102330.88;5136914;27;20078;-42
2021/03/31 05:29:41;;;;;;;27.40;18.50;;;;;;;7.10;62.66;102327.34;5136788;27;20031;-41
2021/03/31 05:32:07;;;;;;;27.27;17.53;;;;;;;7.21;62.11;102323.44;5136257;27;20023;-42
2021/03/31 05:34:32;;;;;;;26.37;17.67;;;;;;;7.26;62.04;102323.75;5135220;27;20035;-42
2021/03/31 05:36:57;;;;;;;28.83;17.80;;;;;;;7.24;61.74;102320.41;5135473;27;20027;-42
2021/03/31 05:39:23;;;;;;;28.80;17.53;;;;;;;7.26;62.29;102323.75;5135949;27;20031;-42
2021/03/31 05:41:48;;;;;;;29.50;18.37;;;;;;;7.27;62.20;102317.38;5135839;27;20027;-42
2021/03/31 05:44:15;;;;;;;27.40;17.47;;;;;;;7.39;62.37;102315.97;5135795;27;20367;-42
2021/03/31 05:46:41;;;;;;;28.13;18.10;;;;;;;7.41;62.11;102311.25;5135344;27;20505;-42
2021/03/31 05:49:07;;;;;;;25.52;17.63;;;;;;;7.55;61.99;102298.91;5135998;27;20026;-42
2021/03/31 05:51:32;;;;;;;26.63;17.70;;;;;;;7.54;61.99;102301.78;5135627;27;20106;-42
2021/03/31 05:53:57;;;;;;;26.80;16.80;;;;;;;7.72;60.98;102305.06;5135545;27;20019;-42
2021/03/31 05:56:23;;;;;;;27.50;16.47;;;;;;;7.81;61.06;102304.03;5136114;27;20301;-42
2021/03/31 05:58:49;;;;;;;29.23;17.83;;;;;;;7.84;61.04;102303.66;5135765;27;20019;-42
2021/03/31 06:01:15;;;;;;;24.48;16.23;;;;;;;7.89;60.35;102295.88;5135676;27;20076;-42
2021/03/31 06:03:41;;;;;;;26.52;15.82;;;;;;;8.04;60.55;102301.34;5135367;27;20423;-42
2021/03/31 06:06:08;;;;;;;22.52;15.63;;;;;;;8.14;60.03;102295.72;5135702;27;20031;-42
2021/03/31 06:08:33;;;;;;;21.98;15.45;;;;;;;8.19;59.97;102296.00;5135237;27;20023;-42
2021/03/31 06:11:00;;;;;;;27.57;15.97;;;;;;;8.31;59.20;102299.13;5135630;27;20068;-42
2021/03/31 06:13:26;;;;;;;;;;;;;;;8.46;58.86;102295.50;5135338;27;20031;-42
2021/03/31 06:15:52;;;;;;;24.60;15.18;;;;;;;8.34;59.06;102294.19;5135041;27;19911;-41
2021/03/31 06:18:18;;;;;;;26.05;15.45;;;;;;;8.37;59.24;102298.44;5135065;27;20059;-41
2021/03/31 06:20:59;;;;;;;23.30;15.70;;;;;;;8.55;59.04;102296.25;5135320;27;20038;-41
2021/03/31 06:26:01;;;;;;;28.70;16.75;;;;;;;8.63;58.12;102298.03;5135270;27;20027;-41
2021/03/31 06:28:36;;;;;;;26.05;15.82;;;;;;;8.67;58.38;102307.44;5135668;27;20098;-41
2021/03/31 06:31:15;;;;;;;30.08;16.35;;;;;;;8.74;58.71;102305.69;5134961;27;20023;-41
2021/03/31 06:33:45;;;;;;;26.92;16.02;;;;;;;8.79;58.30;102306.00;5134825;27;20084;-41
2021/03/31 06:36:14;;;;;;;20.35;14.05;;;;;;;8.92;59.53;102308.03;5134728;27;20023;-41
2021/03/31 06:38:47;;;;;;;34.78;16.08;;;;;;;9.07;58.38;102302.66;5134691;27;20348;-41
2021/03/31 06:41:32;;;;;;;20.77;14.30;;;;;;;9.17;58.27;102304.03;5135171;27;20072;-41
2021/03/31 06:46:41;;;;;;;;;;;;;;;9.46;57.14;102297.78;5135379;27;20051;-41
2021/03/31 06:49:08;;;;;;;23.80;14.80;;;;;;;9.51;56.97;102300.75;5135178;27;19907;-41
2021/03/31 06:51:33;;;;;;;25.38;14.98;;;;;;;9.63;57.67;102306.53;5134350;27;20118;-41
2021/03/31 06:54:15;;;;;;;25.60;15.85;;;;;;;9.80;57.45;102304.44;5134871;27;20069;-41
2021/03/31 06:56:44;;;;;;;22.30;14.32;;;;;;;9.95;57.07;102299.81;5134175;27;20142;-41
2021/03/31 06:59:10;;;;;;;15.43;12.77;;;;;;;10.09;56.00;102295.41;5134865;27;20453;-41
2021/03/31 07:01:37;;;;;;;19.42;12.82;;;;;;;10.20;55.53;102296.75;5135158;27;20481;-41
2021/03/31 07:04:05;;;;;;;19.10;13.48;;;;;;;10.25;56.26;102297.06;5134507;27;20076;-41
2021/03/31 07:06:31;;;;;;;22.80;13.82;;;;;;;10.32;55.21;102292.53;5134233;27;20027;-41
2021/03/31 07:08:56;;;;;;;19.08;13.90;;;;;;;10.47;55.51;102293.31;5134470;27;20027;-41
2021/03/31 07:11:41;;;;;;;19.35;13.68;;;;;;;10.57;54.90;102288.38;5135349;27;20030;-41
2021/03/31 07:14:11;;;;;;;17.45;12.93;;;;;;;10.67;54.66;102288.03;5134648;27;20467;-41
2021/03/31 07:16:39;;;;;;;18.50;13.07;;;;;;;10.74;54.23;102288.13;5134552;27;20024;-41
2021/03/31 07:19:05;;;;;;;17.08;12.38;;;;;;;10.88;52.71;102295.25;5134543;27;20027;-41
2021/03/31 07:21:32;;;;;;;16.10;12.75;;;;;;;10.93;52.39;102292.84;5134370;27;20027;-41
2021/03/31 07:23:58;;;;;;;16.60;12.15;;;;;;;11.04;52.48;102294.97;5134596;27;20023;-41
2021/03/31 07:26:24;;;;;;;20.65;13.52;;;;;;;11.07;53.05;102289.16;5135114;27;20027;-41
2021/03/31 07:28:51;;;;;;;16.92;11.82;;;;;;;11.22;52.81;102294.44;5133997;27;20039;-41
2021/03/31 07:31:25;;;;;;;18.23;13.30;;;;;;;11.37;53.99;102278.09;5134529;27;20379;-41
2021/03/31 07:34:11;;;;;;;18.30;13.20;;;;;;;11.49;53.05;102286.47;5134505;27;20037;-41
2021/03/31 07:36:39;;;;;;;19.13;12.73;;;;;;;11.57;52.02;102284.41;5134588;27;20031;-41
2021/03/31 07:39:06;;;;;;;18.05;12.70;;;;;;;11.71;51.52;102287.16;5134132;27;20131;-41
2021/03/31 07:41:36;;;;;;;18.77;11.30;;;;;;;11.84;52.03;102279.09;5134403;27;20026;-41
2021/03/31 07:44:03;;;;;;;16.02;12.18;;;;;;;11.95;51.33;102286.63;5134139;27;20031;-41
2021/03/31 07:46:37;;;;;;;19.13;14.30;;;;;;;12.13;51.00;102280.63;5133959;27;20031;-41
2021/03/31 07:49:02;;;;;;;20.42;13.75;;;;;;;12.24;50.63;102279.19;5134516;27;20024;-41
2021/03/31 07:51:30;;;;;;;22.15;13.00;;;;;;;12.36;50.38;102278.38;5133707;27;20064;-41
2021/03/31 07:53:57;;;;;;;16.60;12.15;;;;;;;12.46;51.03;102282.53;5133607;27;20035;-41
2021/03/31 07:56:31;;;;;;;20.88;13.43;;;;;;;12.61;50.40;102284.00;5133975;27;20081;-41
2021/03/31 07:59:03;;;;;;;19.48;12.52;;;;;;;12.68;51.14;102275.84;5136554;27;20364;-41
2021/03/31 08:01:32;;;;;;;17.80;12.43;;;;;;;12.78;50.23;102276.25;5137520;27;20106;-41
2021/03/31 08:03:58;;;;;;;17.67;11.80;;;;;;;12.91;49.05;102269.13;5138504;27;20110;-41
2021/03/31 08:06:30;;;;;;;24.33;13.17;;;;;;;13.06;51.29;102277.88;5137972;27;20105;-41
2021/03/31 08:08:57;;;;;;;19.80;12.90;;;;;;;13.20;50.25;102279.50;5138446;27;20026;-41
2021/03/31 08:11:47;;;;;;;18.80;12.98;;;;;;;13.33;50.45;102278.69;5137864;27;20030;-41
2021/03/31 08:14:14;;;;;;;16.40;11.27;;;;;;;13.47;48.79;102276.72;5137981;27;20495;-41
2021/03/31 08:16:45;;;;;;;16.23;11.68;;;;;;;13.61;48.30;102281.03;5138220;27;20066;-41
2021/03/31 08:19:20;;;;;;;16.83;11.13;;;;;;;13.71;48.36;102286.03;5137441;27;20466;-41
2021/03/31 08:21:49;;;;;;;19.63;10.70;;;;;;;13.90;49.01;102282.38;5137356;27;20509;-41
2021/03/31 08:24:15;;;;;;;17.25;10.85;;;;;;;13.94;47.96;102280.88;5137365;27;20031;-41
2021/03/31 08:26:56;;;;;;;15.93;10.05;;;;;;;14.07;48.32;102279.97;5137571;27;20114;-41
2021/03/31 08:29:21;;;;;;;17.75;10.52;;;;;;;14.30;48.60;102272.06;5137821;27;20139;-41
2021/03/31 08:31:57;;;;;;;15.43;10.90;;;;;;;14.43;47.82;102277.38;5137290;27;20455;-41
2021/03/31 08:34:24;;;;;;;15.90;10.23;;;;;;;14.54;47.77;102270.44;5137463;27;20027;-41
2021/03/31 08:36:50;;;;;;;13.55;10.38;;;;;;;14.67;46.81;102266.75;5136925;27;20023;-41
2021/03/31 08:39:16;;;;;;;18.48;9.95;;;;;;;14.84;46.29;102264.31;5137113;27;20023;-41
2021/03/31 08:41:46;;;;;;;12.70;9.70;;;;;;;15.01;48.76;102265.34;5136756;27;20395;-41
2021/03/31 08:44:21;;;;;;;16.20;9.43;;;;;;;15.16;45.90;102263.09;5136722;27;20031;-41
2021/03/31 08:46:47;;;;;;;14.95;8.77;;;;;;;15.29;44.85;102264.00;5136603;27;20023;-41
2021/03/31 08:49:27;;;;;;;12.77;9.77;;;;;;;15.39;46.23;102261.56;5137128;27;20087;-41
2021/03/31 08:52:00;;;;;;;13.00;9.77;;;;;;;15.58;45.19;102262.38;5137144;27;20086;-41
2021/03/31 08:54:42;;;;;;;11.65;9.65;;;;;;;15.77;45.31;102257.75;5137084;27;20027;-42
2021/03/31 08:57:29;;;;;;;13.48;9.23;;;;;;;15.94;45.49;102261.47;5136634;27;20141;-41
2021/03/31 08:59:58;;;;;;;10.95;9.02;;;;;;;16.04;44.09;102253.56;5136917;27;20066;-42
2021/03/31 09:02:26;;;;;;;15.02;9.10;;;;;;;16.27;45.02;102258.25;5136354;27;20114;-42
2021/03/31 09:04:54;;;;;;;16.17;9.30;;;;;;;16.34;43.82;102250.78;5136593;27;20038;-42
2021/03/31 09:07:20;;;;;;;11.13;8.25;;;;;;;16.40;45.76;102249.03;5136174;27;20023;-41
2021/03/31 09:09:46;;;;;;;10.13;8.43;;;;;;;16.63;44.33;102245.44;5136837;27;20095;-41
2021/03/31 09:12:17;;;;;;;14.80;8.82;;;;;;;16.71;46.32;102242.38;5136414;27;20409;-42
2021/03/31 09:14:50;;;;;;;12.57;9.00;;;;;;;16.83;45.24;102237.75;5136358;27;20096;-42
2021/03/31 09:17:20;;;;;;;14.40;8.50;;;;;;;16.92;44.19;102230.84;5137120;27;20434;-41
2021/03/31 09:19:47;;;;;;;15.15;8.85;;;;;;;17.11;43.89;102239.75;5136510;27;20023;-49
2021/03/31 09:22:15;;;;;;;9.30;7.30;;;;;;;17.22;44.05;102240.78;5134819;27;20027;-42
2021/03/31 09:24:42;;;;;;;13.95;8.02;;;;;;;17.30;43.53;102239.59;5136474;27;20387;-41
2021/03/31 09:27:10;;;;;;;11.23;7.95;;;;;;;17.51;43.92;102236.16;5136124;27;20035;-42
2021/03/31 09:29:40;;;;;;;10.05;7.38;;;;;;;17.61;41.25;102236.38;5136424;27;20039;-41
2021/03/31 09:32:06;;;;;;;11.85;8.30;;;;;;;17.80;41.14;102230.72;5136580;27;20050;-42
2021/03/31 09:34:31;;;;;;;;;;;;;;;17.93;42.41;102230.44;5137256;27;20027;-41
2021/03/31 09:37:04;;;;;;;11.37;8.40;;;;;;;18.06;40.79;102230.13;5135909;27;20313;-41
2021/03/31 09:39:45;;;;;;;13.30;8.25;;;;;;;18.17;41.21;102229.22;5135925;27;20023;-41
2021/03/31 09:42:18;;;;;;;9.77;7.80;;;;;;;18.31;42.79;102228.88;5135485;27;20547;-41
2021/03/31 09:44:44;;;;;;;12.25;8.75;;;;;;;18.37;40.58;102225.16;5135750;27;20027;-41
2021/03/31 09:47:10;;;;;;;10.77;7.63;;;;;;;18.51;39.32;102227.28;5136233;27;20030;-41
2021/03/31 09:49:36;;;;;;;13.35;7.82;;;;;;;18.58;38.11;102231.75;5136001;27;20024;-41
2021/03/31 09:52:03;;;;;;;12.88;8.15;;;;;;;18.61;39.03;102221.13;5135608;27;20029;-41
2021/03/31 09:54:29;;;;;;;9.65;7.38;;;;;;;18.74;38.75;102218.09;5135907;27;20019;-41
2021/03/31 09:56:56;;;;;;;10.25;7.72;;;;;;;18.82;39.70;102215.97;5135710;27;20058;-41
2021/03/31 09:59:21;;;;;;;10.30;7.75;;;;;;;19.01;37.83;102214.59;5136170;27;20029;-41
2021/03/31 10:01:48;;;;;;;11.23;7.10;;;;;;;19.16;37.95;102203.81;5135226;27;20027;-41
2021/03/31 10:04:14;;;;;;;9.70;7.45;;;;;;;19.25;38.20;102201.47;5135782;27;20071;-42
2021/03/31 10:06:40;;;;;;;10.43;7.40;;;;;;;19.42;38.21;102201.38;5135513;27;20026;-41
2021/03/31 10:09:17;;;;;;;10.88;7.40;;;;;;;19.55;39.29;102199.03;5135626;27;20034;-41
2021/03/31 10:11:45;;;;;;;10.43;7.28;;;;;;;19.59;37.30;102202.09;5134921;27;20150;-41
2021/03/31 10:14:28;;;;;;;11.38;7.18;;;;;;;19.73;38.92;102202.56;5135800;27;20023;-41
2021/03/31 10:16:54;;;;;;;10.77;7.53;;;;;;;19.90;37.17;102199.69;5134714;27;20027;-41
2021/03/31 10:19:19;;;;;;;;;;;;;;;19.99;37.44;102198.94;5135640;27;20027;-41
2021/03/31 10:21:46;;;;;;;11.80;7.47;;;;;;;20.00;38.90;102199.78;5134989;27;19912;-41
2021/03/31 10:24:13;;;;;;;11.25;7.53;;;;;;;20.00;36.64;102183.31;5135567;27;20102;-41
2021/03/31 10:26:46;;;;;;;13.73;8.18;;;;;;;20.16;37.43;102189.75;5134589;27;20031;-42
2021/03/31 10:29:23;;;;;;;13.60;8.48;;;;;;;20.32;37.34;102191.53;5135250;27;20055;-41
2021/03/31 10:31:49;;;;;;;10.25;7.57;;;;;;;20.43;34.76;102184.19;5135374;27;20379;-42
2021/03/31 10:34:16;;;;;;;13.40;8.10;;;;;;;20.52;36.82;102188.13;5135118;27;20027;-41
2021/03/31 10:37:09;;;;;;;13.60;7.75;;;;;;;20.66;35.88;102180.22;5134966;27;20443;-42
2021/03/31 10:51:16;;;;;;;11.82;7.57;;;;;;;21.25;34.80;102171.69;5091503;28;20518;-42
2021/03/31 10:54:29;;;;;;;13.68;8.07;;;;;;;21.29;34.52;102165.38;5091852;28;20396;-42
2021/03/31 10:56:30;;;;;;;13.07;7.85;;;;;;;21.40;32.87;102168.19;5083914;28;20416;-42
2021/03/31 10:58:55;;;;;;;9.63;7.53;;;;;;;21.51;33.09;102165.16;5091552;28;20035;-42
2021/03/31 11:01:21;;;;;;;;;;;;;;;21.59;34.65;102167.38;5091913;28;20408;-42
2021/03/31 11:03:46;;;;;;;13.00;7.53;;;;;;;21.70;32.10;102172.91;5091048;28;19912;-42
2021/03/31 11:06:11;;;;;;;;;;;;;;;21.74;34.17;102160.25;5091967;28;20323;-42
2021/03/31 11:08:37;;;;;;;14.98;8.10;;;;;;;21.72;33.24;102156.94;5091078;28;19919;-42
2021/03/31 11:11:02;;;;;;;;;;;;;;;21.83;33.50;102159.41;5092160;28;20082;-42
2021/03/31 11:13:28;;;;;;;12.05;7.30;;;;;;;22.00;31.75;102152.81;5091924;28;19912;-42
2021/03/31 11:15:55;;;;;;;11.68;7.05;;;;;;;22.02;30.00;102143.19;5091425;28;20034;-42
2021/03/31 11:18:27;;;;;;;12.93;7.55;;;;;;;22.18;30.64;102149.50;5090919;28;20412;-42
2021/03/31 11:26:04;;;;;;;11.55;8.65;;;;;;;22.39;30.51;102141.22;5134160;28;20115;-42
2021/03/31 11:28:30;;;;;;;;;;;;;;;22.56;32.97;102147.25;5134381;28;20102;-42
2021/03/31 11:30:55;;;;;;;16.73;7.97;;;;;;;22.49;30.57;102132.91;5133991;27;20349;-42
2021/03/31 11:33:22;;;;;;;12.57;8.30;;;;;;;22.51;31.83;102141.75;5136888;27;20033;-42
2021/03/31 11:35:49;;;;;;;11.85;8.10;;;;;;;22.49;31.33;102133.72;5138546;27;20114;-42
2021/03/31 11:38:14;;;;;;;16.27;9.60;;;;;;;22.52;29.51;102124.91;5138223;27;20035;-42
2021/03/31 11:40:39;;;;;;;;;;;;;;;22.77;33.29;102135.03;5138763;27;20355;-42
2021/03/31 11:43:07;;;;;;;14.25;8.68;;;;;;;22.88;29.21;102119.25;5136508;27;19907;-42
2021/03/31 11:45:33;;;;;;;14.07;9.55;;;;;;;22.97;29.24;102120.34;5138050;27;20062;-42
2021/03/31 11:47:58;;;;;;;13.77;9.80;;;;;;;23.10;30.81;102121.66;5138033;27;20474;-42